Terminal Aerodrome Forecast
Issued by NWS Upton, NY

Home | Current Version | Previous Version | Text Only | Print | Product List | Glossary On
Versions: 1 2 3 4 5 6 7 8 9 10 11 12 13 14 15 16 17 18 19 20 21 22 23 24 25 26 27 28 29 30 31 32
358
FTUS41 KOKX 180632 AAA
TAFLGA
TAF AMD
KLGA 180632Z 1807/1912 10006KT P6SM -SHRA BKN015 BKN040
     FM180900 09005KT P6SM BKN015
      TEMPO 1809/1812 6SM -SHRA SCT008 BKN010
     FM181400 VRB04KT P6SM SCT010 BKN025
     FM181700 26007KT P6SM SCT025 BKN050
     FM182200 24007KT P6SM BKN070
     FM190700 27008KT P6SM SCT250=

USA.gov is the U.S. government's official web portal to all federal, state and local government web resources and services.